sensor_id;sensor_type;location;lat;lon;timestamp;temperature;humidity
48806;DHT22;34625;47.176;27.548;2022-10-16T00:00:57;22.90;60.50
48806;DHT22;34625;47.176;27.548;2022-10-16T00:03:23;23.00;60.50
48806;DHT22;34625;47.176;27.548;2022-10-16T00:05:49;22.90;60.50
48806;DHT22;34625;47.176;27.548;2022-10-16T00:08:15;23.00;60.50
48806;DHT22;34625;47.176;27.548;2022-10-16T00:10:41;22.80;60.30
48806;DHT22;34625;47.176;27.548;2022-10-16T00:13:07;22.80;60.30
48806;DHT22;34625;47.176;27.548;2022-10-16T00:15:37;22.90;60.40
48806;DHT22;34625;47.176;27.548;2022-10-16T00:18:05;22.80;60.30
48806;DHT22;34625;47.176;27.548;2022-10-16T00:20:34;22.80;60.30
48806;DHT22;34625;47.176;27.548;2022-10-16T00:23:19;22.90;60.30
48806;DHT22;34625;47.176;27.548;2022-10-16T00:25:54;22.80;60.10
48806;DHT22;34625;47.176;27.548;2022-10-16T00:28:22;22.80;60.10
48806;DHT22;34625;47.176;27.548;2022-10-16T00:30:48;22.80;60.10
48806;DHT22;34625;47.176;27.548;2022-10-16T00:33:14;22.70;60.20
48806;DHT22;34625;47.176;27.548;2022-10-16T00:35:40;22.80;60.30
48806;DHT22;34625;47.176;27.548;2022-10-16T00:38:06;22.80;60.30
48806;DHT22;34625;47.176;27.548;2022-10-16T00:40:32;22.60;60.20
48806;DHT22;34625;47.176;27.548;2022-10-16T00:42:58;22.70;60.40
48806;DHT22;34625;47.176;27.548;2022-10-16T00:45:24;22.60;60.20
48806;DHT22;34625;47.176;27.548;2022-10-16T00:47:51;22.60;60.20
48806;DHT22;34625;47.176;27.548;2022-10-16T00:50:30;22.50;60.30
48806;DHT22;34625;47.176;27.548;2022-10-16T00:52:58;22.60;60.30
48806;DHT22;34625;47.176;27.548;2022-10-16T00:55:25;22.60;60.30
48806;DHT22;34625;47.176;27.548;2022-10-16T00:57:52;22.70;60.30
48806;DHT22;34625;47.176;27.548;2022-10-16T01:00:21;22.50;60.20
48806;DHT22;34625;47.176;27.548;2022-10-16T01:02:56;22.60;60.20
48806;DHT22;34625;47.176;27.548;2022-10-16T01:05:28;22.50;60.10
48806;DHT22;34625;47.176;27.548;2022-10-16T01:08:14;22.50;60.20
48806;DHT22;34625;47.176;27.548;2022-10-16T01:10:57;22.50;60.10
48806;DHT22;34625;47.176;27.548;2022-10-16T01:13:38;22.40;60.10
48806;DHT22;34625;47.176;27.548;2022-10-16T01:19:38;22.50;60.00
48806;DHT22;34625;47.176;27.548;2022-10-16T01:22:09;22.50;60.00
48806;DHT22;34625;47.176;27.548;2022-10-16T01:24:45;22.60;60.00
48806;DHT22;34625;47.176;27.548;2022-10-16T01:27:25;22.50;60.00
48806;DHT22;34625;47.176;27.548;2022-10-16T01:30:02;22.40;59.90
48806;DHT22;34625;47.176;27.548;2022-10-16T01:32:59;22.40;60.00
48806;DHT22;34625;47.176;27.548;2022-10-16T01:35:35;22.30;60.00
48806;DHT22;34625;47.176;27.548;2022-10-16T01:38:10;22.30;60.10
48806;DHT22;34625;47.176;27.548;2022-10-16T01:40:41;22.20;60.00
48806;DHT22;34625;47.176;27.548;2022-10-16T01:43:12;22.30;60.10
48806;DHT22;34625;47.176;27.548;2022-10-16T01:45:42;22.20;60.00
48806;DHT22;34625;47.176;27.548;2022-10-16T01:48:12;22.20;60.00
48806;DHT22;34625;47.176;27.548;2022-10-16T01:50:41;22.20;60.00
48806;DHT22;34625;47.176;27.548;2022-10-16T01:53:11;22.30;60.00
48806;DHT22;34625;47.176;27.548;2022-10-16T01:55:41;22.30;59.80
48806;DHT22;34625;47.176;27.548;2022-10-16T01:58:12;22.20;59.60
48806;DHT22;34625;47.176;27.548;2022-10-16T02:00:42;22.30;59.80
48806;DHT22;34625;47.176;27.548;2022-10-16T02:03:11;22.20;59.70
48806;DHT22;34625;47.176;27.548;2022-10-16T02:08:17;22.30;60.00
48806;DHT22;34625;47.176;27.548;2022-10-16T02:10:44;22.30;59.80
48806;DHT22;34625;47.176;27.548;2022-10-16T02:13:22;22.20;59.60
48806;DHT22;34625;47.176;27.548;2022-10-16T02:15:49;22.30;59.70
48806;DHT22;34625;47.176;27.548;2022-10-16T02:18:15;22.20;59.50
48806;DHT22;34625;47.176;27.548;2022-10-16T02:21:00;22.20;59.50
48806;DHT22;34625;47.176;27.548;2022-10-16T02:23:57;22.20;59.50
48806;DHT22;34625;47.176;27.548;2022-10-16T02:26:31;22.20;59.40
48806;DHT22;34625;47.176;27.548;2022-10-16T02:29:05;22.20;59.40
48806;DHT22;34625;47.176;27.548;2022-10-16T02:31:36;22.20;59.40
48806;DHT22;34625;47.176;27.548;2022-10-16T02:34:05;22.20;59.50
48806;DHT22;34625;47.176;27.548;2022-10-16T02:36:33;22.20;59.50
48806;DHT22;34625;47.176;27.548;2022-10-16T02:39:02;22.10;59.60
48806;DHT22;34625;47.176;27.548;2022-10-16T02:41:30;22.10;59.70
48806;DHT22;34625;47.176;27.548;2022-10-16T02:43:56;22.20;59.70
48806;DHT22;34625;47.176;27.548;2022-10-16T02:46:22;22.10;59.70
48806;DHT22;34625;47.176;27.548;2022-10-16T02:48:48;22.00;59.60
48806;DHT22;34625;47.176;27.548;2022-10-16T02:51:14;22.00;59.60
48806;DHT22;34625;47.176;27.548;2022-10-16T02:53:40;22.10;59.80
48806;DHT22;34625;47.176;27.548;2022-10-16T02:56:06;22.00;59.70
48806;DHT22;34625;47.176;27.548;2022-10-16T02:58:32;22.00;59.60
48806;DHT22;34625;47.176;27.548;2022-10-16T03:00:58;22.00;59.50
48806;DHT22;34625;47.176;27.548;2022-10-16T03:03:24;22.00;59.30
48806;DHT22;34625;47.176;27.548;2022-10-16T03:05:50;22.00;59.20
48806;DHT22;34625;47.176;27.548;2022-10-16T03:08:16;22.00;59.10
48806;DHT22;34625;47.176;27.548;2022-10-16T03:10:42;22.00;59.20
48806;DHT22;34625;47.176;27.548;2022-10-16T03:13:08;22.00;59.40
48806;DHT22;34625;47.176;27.548;2022-10-16T03:15:34;22.00;59.40
48806;DHT22;34625;47.176;27.548;2022-10-16T03:18:00;22.10;59.50
48806;DHT22;34625;47.176;27.548;2022-10-16T03:20:26;22.00;59.30
48806;DHT22;34625;47.176;27.548;2022-10-16T03:22:52;21.90;59.30
48806;DHT22;34625;47.176;27.548;2022-10-16T03:25:18;22.00;59.20
48806;DHT22;34625;47.176;27.548;2022-10-16T03:27:44;22.00;59.10
48806;DHT22;34625;47.176;27.548;2022-10-16T03:30:10;22.00;59.10
48806;DHT22;34625;47.176;27.548;2022-10-16T03:32:36;22.00;59.00
48806;DHT22;34625;47.176;27.548;2022-10-16T03:35:02;22.10;59.00
48806;DHT22;34625;47.176;27.548;2022-10-16T03:37:29;22.00;58.90
48806;DHT22;34625;47.176;27.548;2022-10-16T03:39:55;21.90;58.90
48806;DHT22;34625;47.176;27.548;2022-10-16T03:42:20;21.90;58.90
48806;DHT22;34625;47.176;27.548;2022-10-16T03:44:46;21.90;59.10
48806;DHT22;34625;47.176;27.548;2022-10-16T03:47:12;21.80;59.00
48806;DHT22;34625;47.176;27.548;2022-10-16T03:49:38;22.00;59.10
48806;DHT22;34625;47.176;27.548;2022-10-16T03:52:04;21.80;59.10
48806;DHT22;34625;47.176;27.548;2022-10-16T03:54:30;21.90;59.20
48806;DHT22;34625;47.176;27.548;2022-10-16T03:56:56;21.90;59.10
48806;DHT22;34625;47.176;27.548;2022-10-16T03:59:22;21.80;59.10
48806;DHT22;34625;47.176;27.548;2022-10-16T04:01:48;21.80;59.00
48806;DHT22;34625;47.176;27.548;2022-10-16T04:04:14;21.70;59.10
48806;DHT22;34625;47.176;27.548;2022-10-16T04:06:40;21.80;59.10
48806;DHT22;34625;47.176;27.548;2022-10-16T04:09:06;21.80;59.00
48806;DHT22;34625;47.176;27.548;2022-10-16T04:11:32;21.70;59.10
48806;DHT22;34625;47.176;27.548;2022-10-16T04:13:58;21.70;58.80
48806;DHT22;34625;47.176;27.548;2022-10-16T04:16:24;21.70;58.70
48806;DHT22;34625;47.176;27.548;2022-10-16T04:18:50;21.70;58.80
48806;DHT22;34625;47.176;27.548;2022-10-16T04:21:16;21.70;58.80
48806;DHT22;34625;47.176;27.548;2022-10-16T04:23:42;21.70;58.70
48806;DHT22;34625;47.176;27.548;2022-10-16T04:26:08;21.80;58.70
48806;DHT22;34625;47.176;27.548;2022-10-16T04:28:36;21.70;58.60
48806;DHT22;34625;47.176;27.548;2022-10-16T04:31:06;21.70;58.50
48806;DHT22;34625;47.176;27.548;2022-10-16T04:33:33;21.90;58.70
48806;DHT22;34625;47.176;27.548;2022-10-16T04:35:59;21.80;58.50
48806;DHT22;34625;47.176;27.548;2022-10-16T04:38:26;21.70;58.60
48806;DHT22;34625;47.176;27.548;2022-10-16T04:40:52;21.70;58.70
48806;DHT22;34625;47.176;27.548;2022-10-16T04:43:18;21.70;58.90
48806;DHT22;34625;47.176;27.548;2022-10-16T04:45:45;21.70;58.90
48806;DHT22;34625;47.176;27.548;2022-10-16T04:48:11;21.80;58.90
48806;DHT22;34625;47.176;27.548;2022-10-16T04:50:37;21.60;58.90
48806;DHT22;34625;47.176;27.548;2022-10-16T04:53:06;21.70;58.90
48806;DHT22;34625;47.176;27.548;2022-10-16T04:55:33;21.60;58.90
48806;DHT22;34625;47.176;27.548;2022-10-16T04:57:59;21.50;58.90
48806;DHT22;34625;47.176;27.548;2022-10-16T05:00:25;21.50;58.90
48806;DHT22;34625;47.176;27.548;2022-10-16T05:02:51;21.50;59.00
48806;DHT22;34625;47.176;27.548;2022-10-16T05:05:17;21.60;58.80
48806;DHT22;34625;47.176;27.548;2022-10-16T05:07:46;21.60;58.70
48806;DHT22;34625;47.176;27.548;2022-10-16T05:10:12;21.50;58.50
48806;DHT22;34625;47.176;27.548;2022-10-16T05:12:38;21.50;58.50
48806;DHT22;34625;47.176;27.548;2022-10-16T05:15:04;21.70;58.40
48806;DHT22;34625;47.176;27.548;2022-10-16T05:17:31;21.60;58.20
48806;DHT22;34625;47.176;27.548;2022-10-16T05:19:57;21.60;58.40
48806;DHT22;34625;47.176;27.548;2022-10-16T05:22:22;21.70;58.40
48806;DHT22;34625;47.176;27.548;2022-10-16T05:24:48;21.70;58.20
48806;DHT22;34625;47.176;27.548;2022-10-16T05:27:14;21.60;58.30
48806;DHT22;34625;47.176;27.548;2022-10-16T05:29:46;21.80;52.10
48806;DHT22;34625;47.176;27.548;2022-10-16T05:32:13;21.90;51.50
48806;DHT22;34625;47.176;27.548;2022-10-16T05:34:39;22.10;51.60
48806;DHT22;34625;47.176;27.548;2022-10-16T05:37:05;22.10;50.50
48806;DHT22;34625;47.176;27.548;2022-10-16T05:39:31;22.30;52.00
48806;DHT22;34625;47.176;27.548;2022-10-16T05:41:57;22.30;50.90
48806;DHT22;34625;47.176;27.548;2022-10-16T05:44:23;22.30;50.30
48806;DHT22;34625;47.176;27.548;2022-10-16T05:46:49;22.40;51.20
48806;DHT22;34625;47.176;27.548;2022-10-16T05:49:15;22.40;53.20
48806;DHT22;34625;47.176;27.548;2022-10-16T05:51:41;22.40;49.10
48806;DHT22;34625;47.176;27.548;2022-10-16T05:54:08;22.50;49.40
48806;DHT22;34625;47.176;27.548;2022-10-16T05:56:33;22.50;57.60
48806;DHT22;34625;47.176;27.548;2022-10-16T05:58:59;22.60;59.90
48806;DHT22;34625;47.176;27.548;2022-10-16T06:01:26;22.80;60.70
48806;DHT22;34625;47.176;27.548;2022-10-16T06:03:52;22.70;62.00
48806;DHT22;34625;47.176;27.548;2022-10-16T06:06:21;22.70;61.90
48806;DHT22;34625;47.176;27.548;2022-10-16T06:08:48;22.50;62.20
48806;DHT22;34625;47.176;27.548;2022-10-16T06:11:20;22.50;63.80
48806;DHT22;34625;47.176;27.548;2022-10-16T06:13:58;22.50;62.50
48806;DHT22;34625;47.176;27.548;2022-10-16T06:16:25;22.50;63.90
48806;DHT22;34625;47.176;27.548;2022-10-16T06:18:53;22.40;64.00
48806;DHT22;34625;47.176;27.548;2022-10-16T06:21:22;22.40;63.80
48806;DHT22;34625;47.176;27.548;2022-10-16T06:23:51;22.30;64.00
48806;DHT22;34625;47.176;27.548;2022-10-16T06:26:20;22.40;63.80
48806;DHT22;34625;47.176;27.548;2022-10-16T06:28:46;22.50;63.20
48806;DHT22;34625;47.176;27.548;2022-10-16T06:31:13;22.50;63.20
48806;DHT22;34625;47.176;27.548;2022-10-16T06:33:39;22.50;63.40
48806;DHT22;34625;47.176;27.548;2022-10-16T06:36:11;22.50;63.70
48806;DHT22;34625;47.176;27.548;2022-10-16T06:38:38;22.40;63.80
48806;DHT22;34625;47.176;27.548;2022-10-16T06:41:05;22.40;63.80
48806;DHT22;34625;47.176;27.548;2022-10-16T06:43:32;22.40;63.70
48806;DHT22;34625;47.176;27.548;2022-10-16T06:46:02;22.50;64.40
48806;DHT22;34625;47.176;27.548;2022-10-16T06:48:29;22.40;65.10
48806;DHT22;34625;47.176;27.548;2022-10-16T06:51:06;22.50;65.50
48806;DHT22;34625;47.176;27.548;2022-10-16T06:53:36;22.40;65.50
48806;DHT22;34625;47.176;27.548;2022-10-16T06:56:14;22.30;65.50
48806;DHT22;34625;47.176;27.548;2022-10-16T06:58:41;22.30;65.40
48806;DHT22;34625;47.176;27.548;2022-10-16T07:01:08;22.40;65.60
48806;DHT22;34625;47.176;27.548;2022-10-16T07:03:42;22.30;65.20
48806;DHT22;34625;47.176;27.548;2022-10-16T07:06:11;22.40;65.20
48806;DHT22;34625;47.176;27.548;2022-10-16T07:08:39;22.40;65.40
48806;DHT22;34625;47.176;27.548;2022-10-16T07:11:08;22.30;62.70
48806;DHT22;34625;47.176;27.548;2022-10-16T07:13:36;22.40;56.00
48806;DHT22;34625;47.176;27.548;2022-10-16T07:16:11;22.70;53.90
48806;DHT22;34625;47.176;27.548;2022-10-16T07:18:37;22.90;52.60
48806;DHT22;34625;47.176;27.548;2022-10-16T07:21:06;23.00;53.40
48806;DHT22;34625;47.176;27.548;2022-10-16T07:23:34;23.10;52.00
48806;DHT22;34625;47.176;27.548;2022-10-16T07:26:01;23.20;46.70
48806;DHT22;34625;47.176;27.548;2022-10-16T07:28:27;23.40;57.00
48806;DHT22;34625;47.176;27.548;2022-10-16T07:30:53;23.30;58.10
48806;DHT22;34625;47.176;27.548;2022-10-16T07:33:19;23.20;58.70
48806;DHT22;34625;47.176;27.548;2022-10-16T07:35:52;23.30;59.10
48806;DHT22;34625;47.176;27.548;2022-10-16T07:38:19;23.30;59.60
48806;DHT22;34625;47.176;27.548;2022-10-16T07:40:46;23.30;60.10
48806;DHT22;34625;47.176;27.548;2022-10-16T07:43:12;23.40;62.30
48806;DHT22;34625;47.176;27.548;2022-10-16T07:45:47;23.40;63.10
48806;DHT22;34625;47.176;27.548;2022-10-16T07:48:14;23.50;63.10
48806;DHT22;34625;47.176;27.548;2022-10-16T07:50:40;23.50;61.60
48806;DHT22;34625;47.176;27.548;2022-10-16T07:53:07;23.40;61.00
48806;DHT22;34625;47.176;27.548;2022-10-16T07:55:33;23.40;59.40
48806;DHT22;34625;47.176;27.548;2022-10-16T07:57:59;23.40;58.00
48806;DHT22;34625;47.176;27.548;2022-10-16T08:00:25;23.40;58.60
48806;DHT22;34625;47.176;27.548;2022-10-16T08:02:51;23.40;58.70
48806;DHT22;34625;47.176;27.548;2022-10-16T08:05:17;23.30;58.40
48806;DHT22;34625;47.176;27.548;2022-10-16T08:07:48;23.30;59.20
48806;DHT22;34625;47.176;27.548;2022-10-16T08:10:18;23.40;59.50
48806;DHT22;34625;47.176;27.548;2022-10-16T08:12:44;23.40;59.00
48806;DHT22;34625;47.176;27.548;2022-10-16T08:15:10;23.50;59.20
48806;DHT22;34625;47.176;27.548;2022-10-16T08:17:36;23.50;59.40
48806;DHT22;34625;47.176;27.548;2022-10-16T08:20:03;23.50;59.10
48806;DHT22;34625;47.176;27.548;2022-10-16T08:22:29;23.50;59.20
48806;DHT22;34625;47.176;27.548;2022-10-16T08:24:55;23.60;58.60
48806;DHT22;34625;47.176;27.548;2022-10-16T08:27:21;23.60;58.50
48806;DHT22;34625;47.176;27.548;2022-10-16T08:29:48;23.60;58.60
48806;DHT22;34625;47.176;27.548;2022-10-16T08:32:14;23.60;57.60
48806;DHT22;34625;47.176;27.548;2022-10-16T08:34:40;23.70;58.20
48806;DHT22;34625;47.176;27.548;2022-10-16T08:37:06;23.50;55.30
48806;DHT22;34625;47.176;27.548;2022-10-16T08:39:34;23.50;57.50
48806;DHT22;34625;47.176;27.548;2022-10-16T08:50:25;23.60;57.70
48806;DHT22;34625;47.176;27.548;2022-10-16T08:52:54;23.50;57.80
48806;DHT22;34625;47.176;27.548;2022-10-16T08:57:53;23.50;57.90
48806;DHT22;34625;47.176;27.548;2022-10-16T09:00:19;23.50;57.70
48806;DHT22;34625;47.176;27.548;2022-10-16T09:22:35;23.50;57.70
48806;DHT22;34625;47.176;27.548;2022-10-16T09:25:19;23.70;57.70
48806;DHT22;34625;47.176;27.548;2022-10-16T09:27:48;23.60;57.50
48806;DHT22;34625;47.176;27.548;2022-10-16T09:30:17;23.60;57.60
48806;DHT22;34625;47.176;27.548;2022-10-16T09:32:47;23.50;57.60
48806;DHT22;34625;47.176;27.548;2022-10-16T09:35:31;23.70;57.60
48806;DHT22;34625;47.176;27.548;2022-10-16T09:37:58;23.50;57.20
48806;DHT22;34625;47.176;27.548;2022-10-16T09:40:36;23.60;57.70
48806;DHT22;34625;47.176;27.548;2022-10-16T09:43:22;23.50;57.80
48806;DHT22;34625;47.176;27.548;2022-10-16T09:46:07;23.60;57.40
48806;DHT22;34625;47.176;27.548;2022-10-16T09:48:39;23.60;56.40
48806;DHT22;34625;47.176;27.548;2022-10-16T09:51:15;23.70;56.00
48806;DHT22;34625;47.176;27.548;2022-10-16T09:53:46;23.60;54.40
48806;DHT22;34625;47.176;27.548;2022-10-16T09:56:22;23.50;54.90
48806;DHT22;34625;47.176;27.548;2022-10-16T09:58:54;23.70;54.80
48806;DHT22;34625;47.176;27.548;2022-10-16T10:01:26;23.70;53.70
48806;DHT22;34625;47.176;27.548;2022-10-16T10:03:56;23.80;51.30
48806;DHT22;34625;47.176;27.548;2022-10-16T10:06:32;23.70;50.20
48806;DHT22;34625;47.176;27.548;2022-10-16T10:09:24;23.60;49.60
48806;DHT22;34625;47.176;27.548;2022-10-16T10:11:54;23.70;50.10
48806;DHT22;34625;47.176;27.548;2022-10-16T10:17:26;23.70;49.90
48806;DHT22;34625;47.176;27.548;2022-10-16T10:20:00;23.80;49.50
48806;DHT22;34625;47.176;27.548;2022-10-16T10:22:39;23.70;49.60
48806;DHT22;34625;47.176;27.548;2022-10-16T10:30:42;23.70;45.80
48806;DHT22;34625;47.176;27.548;2022-10-16T10:55:48;24.10;50.30
48806;DHT22;34625;47.176;27.548;2022-10-16T11:01:14;24.30;55.00
48806;DHT22;34625;47.176;27.548;2022-10-16T11:06:50;24.60;53.60
48806;DHT22;34625;47.176;27.548;2022-10-16T11:09:24;24.70;46.40
48806;DHT22;34625;47.176;27.548;2022-10-16T11:15:25;24.40;42.30
48806;DHT22;34625;47.176;27.548;2022-10-16T11:18:16;24.30;41.40
48806;DHT22;34625;47.176;27.548;2022-10-16T11:20:54;24.10;40.30
48806;DHT22;34625;47.176;27.548;2022-10-16T11:23:33;24.20;41.20
48806;DHT22;34625;47.176;27.548;2022-10-16T11:26:04;24.10;40.30
48806;DHT22;34625;47.176;27.548;2022-10-16T11:28:39;24.00;40.70
48806;DHT22;34625;47.176;27.548;2022-10-16T11:31:21;24.00;40.40
48806;DHT22;34625;47.176;27.548;2022-10-16T11:36:40;24.10;41.00
48806;DHT22;34625;47.176;27.548;2022-10-16T11:39:24;23.90;40.30
48806;DHT22;34625;47.176;27.548;2022-10-16T11:47:45;23.80;40.50
48806;DHT22;34625;47.176;27.548;2022-10-16T11:50:45;23.80;40.50
48806;DHT22;34625;47.176;27.548;2022-10-16T11:53:34;23.60;41.10
48806;DHT22;34625;47.176;27.548;2022-10-16T11:56:05;23.60;41.00
48806;DHT22;34625;47.176;27.548;2022-10-16T11:58:41;23.60;40.70
48806;DHT22;34625;47.176;27.548;2022-10-16T12:04:11;23.60;41.40
48806;DHT22;34625;47.176;27.548;2022-10-16T12:06:58;23.50;43.60
48806;DHT22;34625;47.176;27.548;2022-10-16T12:09:33;23.50;44.60
48806;DHT22;34625;47.176;27.548;2022-10-16T12:12:01;23.50;46.00
48806;DHT22;34625;47.176;27.548;2022-10-16T12:17:22;23.40;47.70
48806;DHT22;34625;47.176;27.548;2022-10-16T12:20:18;23.60;48.30
48806;DHT22;34625;47.176;27.548;2022-10-16T12:22:54;23.50;46.80
48806;DHT22;34625;47.176;27.548;2022-10-16T12:28:02;23.80;47.40
48806;DHT22;34625;47.176;27.548;2022-10-16T12:30:32;23.80;44.10
48806;DHT22;34625;47.176;27.548;2022-10-16T12:33:05;24.00;53.10
48806;DHT22;34625;47.176;27.548;2022-10-16T12:35:33;24.20;53.10
48806;DHT22;34625;47.176;27.548;2022-10-16T12:38:20;24.30;53.10
48806;DHT22;34625;47.176;27.548;2022-10-16T12:40:57;24.30;52.30
48806;DHT22;34625;47.176;27.548;2022-10-16T12:43:39;24.40;52.50
48806;DHT22;34625;47.176;27.548;2022-10-16T12:48:34;24.30;53.10
48806;DHT22;34625;47.176;27.548;2022-10-16T12:54:02;24.30;53.30
48806;DHT22;34625;47.176;27.548;2022-10-16T12:59:17;24.20;53.20
48806;DHT22;34625;47.176;27.548;2022-10-16T13:10:25;24.20;53.60
48806;DHT22;34625;47.176;27.548;2022-10-16T13:26:52;24.30;53.70
48806;DHT22;34625;47.176;27.548;2022-10-16T13:29:21;24.30;53.80
48806;DHT22;34625;47.176;27.548;2022-10-16T13:31:48;24.40;53.90
48806;DHT22;34625;47.176;27.548;2022-10-16T13:34:20;24.20;53.90
48806;DHT22;34625;47.176;27.548;2022-10-16T13:36:50;24.20;53.90
48806;DHT22;34625;47.176;27.548;2022-10-16T13:39:27;24.20;54.00
48806;DHT22;34625;47.176;27.548;2022-10-16T13:42:22;24.20;54.00
48806;DHT22;34625;47.176;27.548;2022-10-16T13:44:52;24.40;54.10
48806;DHT22;34625;47.176;27.548;2022-10-16T13:47:19;24.30;54.20
48806;DHT22;34625;47.176;27.548;2022-10-16T13:49:46;24.30;54.20
48806;DHT22;34625;47.176;27.548;2022-10-16T13:52:20;24.20;54.20
48806;DHT22;34625;47.176;27.548;2022-10-16T13:54:47;24.20;54.20
48806;DHT22;34625;47.176;27.548;2022-10-16T13:57:16;24.30;54.40
48806;DHT22;34625;47.176;27.548;2022-10-16T13:59:43;24.20;54.40
48806;DHT22;34625;47.176;27.548;2022-10-16T14:02:29;24.40;54.40
48806;DHT22;34625;47.176;27.548;2022-10-16T14:04:57;24.20;54.40
48806;DHT22;34625;47.176;27.548;2022-10-16T14:07:29;24.30;54.50
48806;DHT22;34625;47.176;27.548;2022-10-16T14:09:59;24.30;54.50
48806;DHT22;34625;47.176;27.548;2022-10-16T14:12:26;24.30;54.60
48806;DHT22;34625;47.176;27.548;2022-10-16T14:14:54;24.20;54.50
48806;DHT22;34625;47.176;27.548;2022-10-16T14:17:26;24.30;54.60
48806;DHT22;34625;47.176;27.548;2022-10-16T14:19:55;24.30;54.60
48806;DHT22;34625;47.176;27.548;2022-10-16T14:27:44;24.20;54.70
48806;DHT22;34625;47.176;27.548;2022-10-16T14:32:52;24.20;54.70
48806;DHT22;34625;47.176;27.548;2022-10-16T14:35:34;24.20;54.80
48806;DHT22;34625;47.176;27.548;2022-10-16T14:38:02;24.00;54.80
48806;DHT22;34625;47.176;27.548;2022-10-16T14:40:35;24.10;55.00
48806;DHT22;34625;47.176;27.548;2022-10-16T14:43:03;24.10;55.10
48806;DHT22;34625;47.176;27.548;2022-10-16T14:45:31;24.10;55.20
48806;DHT22;34625;47.176;27.548;2022-10-16T14:48:05;24.10;55.30
48806;DHT22;34625;47.176;27.548;2022-10-16T14:50:32;24.10;55.30
48806;DHT22;34625;47.176;27.548;2022-10-16T14:52:58;24.10;55.40
48806;DHT22;34625;47.176;27.548;2022-10-16T14:55:25;24.00;57.30
48806;DHT22;34625;47.176;27.548;2022-10-16T14:57:51;24.10;58.80
48806;DHT22;34625;47.176;27.548;2022-10-16T15:00:21;24.10;59.50
48806;DHT22;34625;47.176;27.548;2022-10-16T15:02:48;24.00;60.50
48806;DHT22;34625;47.176;27.548;2022-10-16T15:07:44;24.00;58.90
48806;DHT22;34625;47.176;27.548;2022-10-16T15:10:31;24.00;58.80
48806;DHT22;34625;47.176;27.548;2022-10-16T15:12:58;24.00;57.50
48806;DHT22;34625;47.176;27.548;2022-10-16T15:17:59;24.30;52.50
48806;DHT22;34625;47.176;27.548;2022-10-16T15:20:35;24.40;51.30
48806;DHT22;34625;47.176;27.548;2022-10-16T15:23:04;24.50;51.40
48806;DHT22;34625;47.176;27.548;2022-10-16T15:25:39;24.40;46.60
48806;DHT22;34625;47.176;27.548;2022-10-16T15:28:08;24.50;47.00
48806;DHT22;34625;47.176;27.548;2022-10-16T15:30:35;24.60;46.90
48806;DHT22;34625;47.176;27.548;2022-10-16T15:33:02;24.50;43.20
48806;DHT22;34625;47.176;27.548;2022-10-16T15:35:29;24.50;44.90
48806;DHT22;34625;47.176;27.548;2022-10-16T15:37:55;24.40;43.30
48806;DHT22;34625;47.176;27.548;2022-10-16T15:40:22;24.40;42.70
48806;DHT22;34625;47.176;27.548;2022-10-16T15:42:49;24.50;48.50
48806;DHT22;34625;47.176;27.548;2022-10-16T15:45:16;24.40;53.60
48806;DHT22;34625;47.176;27.548;2022-10-16T15:47:43;24.40;54.20
48806;DHT22;34625;47.176;27.548;2022-10-16T15:50:11;24.40;54.80
48806;DHT22;34625;47.176;27.548;2022-10-16T15:52:38;24.30;55.30
48806;DHT22;34625;47.176;27.548;2022-10-16T15:55:09;24.30;55.80
48806;DHT22;34625;47.176;27.548;2022-10-16T15:57:36;24.30;56.10
48806;DHT22;34625;47.176;27.548;2022-10-16T16:00:09;24.20;56.20
48806;DHT22;34625;47.176;27.548;2022-10-16T16:02:38;24.30;56.30
48806;DHT22;34625;47.176;27.548;2022-10-16T16:05:04;24.40;56.40
48806;DHT22;34625;47.176;27.548;2022-10-16T16:07:33;24.30;56.40
48806;DHT22;34625;47.176;27.548;2022-10-16T16:09:59;24.30;56.40
48806;DHT22;34625;47.176;27.548;2022-10-16T16:12:25;24.30;56.60
48806;DHT22;34625;47.176;27.548;2022-10-16T16:14:51;24.20;56.80
48806;DHT22;34625;47.176;27.548;2022-10-16T16:17:17;24.40;56.80
48806;DHT22;34625;47.176;27.548;2022-10-16T16:19:45;24.20;56.70
48806;DHT22;34625;47.176;27.548;2022-10-16T16:22:11;24.30;56.60
48806;DHT22;34625;47.176;27.548;2022-10-16T16:24:37;24.30;56.90
48806;DHT22;34625;47.176;27.548;2022-10-16T16:27:03;24.30;57.00
48806;DHT22;34625;47.176;27.548;2022-10-16T16:29:29;24.20;56.70
48806;DHT22;34625;47.176;27.548;2022-10-16T16:31:55;24.30;56.60
48806;DHT22;34625;47.176;27.548;2022-10-16T16:34:24;24.40;56.50
48806;DHT22;34625;47.176;27.548;2022-10-16T16:36:50;24.30;56.50
48806;DHT22;34625;47.176;27.548;2022-10-16T16:39:17;24.30;56.50
48806;DHT22;34625;47.176;27.548;2022-10-16T16:41:43;24.30;56.40
48806;DHT22;34625;47.176;27.548;2022-10-16T16:44:11;24.10;56.50
48806;DHT22;34625;47.176;27.548;2022-10-16T16:46:38;24.10;56.80
48806;DHT22;34625;47.176;27.548;2022-10-16T16:49:06;24.10;57.10
48806;DHT22;34625;47.176;27.548;2022-10-16T16:51:33;24.00;57.10
48806;DHT22;34625;47.176;27.548;2022-10-16T16:53:59;24.00;56.70
48806;DHT22;34625;47.176;27.548;2022-10-16T16:56:26;24.10;56.90
48806;DHT22;34625;47.176;27.548;2022-10-16T16:58:53;24.00;57.00
48806;DHT22;34625;47.176;27.548;2022-10-16T17:01:21;23.90;57.20
48806;DHT22;34625;47.176;27.548;2022-10-16T17:03:49;23.80;57.30
48806;DHT22;34625;47.176;27.548;2022-10-16T17:06:19;23.80;57.60
48806;DHT22;34625;47.176;27.548;2022-10-16T17:08:45;23.70;57.80
48806;DHT22;34625;47.176;27.548;2022-10-16T17:11:16;23.80;58.00
48806;DHT22;34625;47.176;27.548;2022-10-16T17:13:42;23.60;58.10
48806;DHT22;34625;47.176;27.548;2022-10-16T17:16:09;23.70;58.20
48806;DHT22;34625;47.176;27.548;2022-10-16T17:18:35;23.60;57.90
48806;DHT22;34625;47.176;27.548;2022-10-16T17:21:03;23.70;58.10
48806;DHT22;34625;47.176;27.548;2022-10-16T17:23:29;23.70;58.20
48806;DHT22;34625;47.176;27.548;2022-10-16T17:25:56;23.60;57.20
48806;DHT22;34625;47.176;27.548;2022-10-16T17:28:22;23.60;58.20
48806;DHT22;34625;47.176;27.548;2022-10-16T17:30:48;23.50;58.20
48806;DHT22;34625;47.176;27.548;2022-10-16T17:33:14;23.70;58.10
48806;DHT22;34625;47.176;27.548;2022-10-16T17:35:45;23.70;57.90
48806;DHT22;34625;47.176;27.548;2022-10-16T17:38:12;23.70;57.60
48806;DHT22;34625;47.176;27.548;2022-10-16T17:40:39;23.80;57.50
48806;DHT22;34625;47.176;27.548;2022-10-16T17:43:06;23.80;57.30
48806;DHT22;34625;47.176;27.548;2022-10-16T17:45:36;23.90;57.30
48806;DHT22;34625;47.176;27.548;2022-10-16T17:48:05;24.00;57.10